Time;durP1;ratioP1;P1;durP2;ratioP2;P2;SDS_P1;SDS_P2;PMS_P1;PMS_P2;Temp;Humidity;BMP_temperature;BMP_pressure;BME280_temperature;BME280_humidity;BME280_pressure;Samples;Min_cycle;Max_cycle;Signal;HPM_P1;HPM_P2
2021/04/29 00:02:06;;;;;;;0.30;0.20;;;;;;;12.03;100.00;98855.34;5033036;28;20464;-55
2021/04/29 00:04:34;;;;;;;0.30;0.20;;;;;;;11.95;100.00;98846.97;5032834;28;20447;-56
2021/04/29 00:07:00;;;;;;;2.00;0.80;;;;;;;12.08;100.00;98862.13;5032886;28;20456;-56
2021/04/29 00:09:26;;;;;;;0.30;0.20;;;;;;;12.12;100.00;98862.81;5032979;28;20452;-56
2021/04/29 00:11:52;;;;;;;1.47;0.67;;;;;;;11.98;100.00;98860.94;5028090;28;20496;-55
2021/04/29 00:14:19;;;;;;;0.30;0.20;;;;;;;11.85;100.00;98862.59;5023875;28;20937;-55
2021/04/29 00:16:45;;;;;;;0.30;0.20;;;;;;;11.72;100.00;98851.75;5014926;28;20513;-56
2021/04/29 00:19:11;;;;;;;0.30;0.20;;;;;;;11.85;100.00;98857.25;5032654;28;20826;-55
2021/04/29 00:21:38;;;;;;;0.30;0.20;;;;;;;11.88;100.00;98850.91;5032377;28;20533;-55
2021/04/29 00:24:05;;;;;;;0.30;0.20;;;;;;;11.90;100.00;98852.53;5032934;28;20454;-56
2021/04/29 00:26:32;;;;;;;0.30;0.20;;;;;;;11.82;100.00;98858.31;5032717;28;20470;-55
2021/04/29 00:28:58;;;;;;;0.30;0.20;;;;;;;11.85;100.00;98855.47;5032425;28;20452;-55
2021/04/29 00:31:24;;;;;;;0.40;0.30;;;;;;;11.79;100.00;98854.97;5032045;28;20502;-55
2021/04/29 00:33:50;;;;;;;0.50;0.50;;;;;;;11.78;100.00;98847.84;5032561;28;20451;-55
2021/04/29 00:36:16;;;;;;;0.30;0.20;;;;;;;11.68;100.00;98852.88;5032324;28;20460;-55
2021/04/29 00:38:43;;;;;;;0.40;0.20;;;;;;;11.72;100.00;98850.88;5032658;28;20463;-55
2021/04/29 00:41:09;;;;;;;0.33;0.20;;;;;;;11.76;100.00;98858.59;5032581;28;20467;-55
2021/04/29 00:43:35;;;;;;;0.30;0.20;;;;;;;12.14;100.00;98861.78;5020857;28;20452;-55
2021/04/29 00:46:02;;;;;;;1.30;1.13;;;;;;;11.83;100.00;98864.50;5030377;28;20458;-55
2021/04/29 00:48:28;;;;;;;0.30;0.20;;;;;;;11.80;100.00;98857.53;5032285;28;20455;-55
2021/04/29 00:50:55;;;;;;;0.30;0.20;;;;;;;11.78;100.00;98867.34;5026257;28;20864;-55
2021/04/29 00:53:33;;;;;;;0.30;0.20;;;;;;;11.78;100.00;98866.50;5025008;28;20451;-55
2021/04/29 00:55:59;;;;;;;0.30;0.20;;;;;;;11.77;100.00;98865.63;5032053;28;20505;-55
2021/04/29 00:58:25;;;;;;;0.30;0.20;;;;;;;11.75;100.00;98858.69;5018691;28;20455;-56
2021/04/29 01:00:52;;;;;;;0.30;0.20;;;;;;;11.77;100.00;98857.66;5032262;28;20521;-56
2021/04/29 01:03:22;;;;;;;0.30;0.20;;;;;;;11.78;100.00;98859.38;5032091;28;20483;-56
2021/04/29 01:05:52;;;;;;;0.30;0.20;;;;;;;11.79;100.00;98865.63;5032108;28;20452;-55
2021/04/29 01:08:29;;;;;;;0.30;0.20;;;;;;;11.74;100.00;98859.63;5032057;28;20440;-55
2021/04/29 01:11:14;;;;;;;0.73;0.73;;;;;;;11.77;100.00;98859.47;5036080;28;20540;-56
2021/04/29 01:13:47;;;;;;;2.10;0.60;;;;;;;11.74;100.00;98859.63;5022090;28;20443;-55
2021/04/29 01:16:16;;;;;;;0.30;0.20;;;;;;;11.69;100.00;98867.88;5036092;28;20448;-55
2021/04/29 01:18:45;;;;;;;0.30;0.20;;;;;;;11.72;100.00;98864.19;5036359;28;20502;-55
2021/04/29 01:21:15;;;;;;;0.30;0.20;;;;;;;11.72;100.00;98861.53;5035496;28;21063;-55
2021/04/29 01:23:42;;;;;;;0.30;0.20;;;;;;;11.75;100.00;98864.88;5036234;28;20443;-55
2021/04/29 01:26:21;;;;;;;0.30;0.20;;;;;;;11.64;100.00;98864.59;5036090;28;20455;-54
2021/04/29 01:28:50;;;;;;;0.30;0.20;;;;;;;11.57;100.00;98863.25;5035896;28;20446;-54
2021/04/29 01:31:22;;;;;;;2.67;0.97;;;;;;;11.67;100.00;98872.44;5035566;28;20495;-56
2021/04/29 01:33:49;;;;;;;0.30;0.20;;;;;;;11.62;100.00;98870.97;5035669;28;20479;-56
2021/04/29 01:36:20;;;;;;;0.30;0.20;;;;;;;11.64;100.00;98875.25;5035569;28;20509;-54
2021/04/29 01:38:47;;;;;;;0.40;0.20;;;;;;;11.62;100.00;98871.81;5035723;28;20448;-54
2021/04/29 01:41:13;;;;;;;0.30;0.20;;;;;;;11.78;100.00;98877.13;5035405;28;20518;-54
2021/04/29 01:43:40;;;;;;;0.30;0.20;;;;;;;11.66;100.00;98873.41;5024307;28;20456;-54
2021/04/29 01:46:07;;;;;;;0.30;0.20;;;;;;;11.62;100.00;98869.16;5033460;28;20454;-54
2021/04/29 01:48:33;;;;;;;0.30;0.20;;;;;;;11.57;100.00;98880.06;5035576;28;20537;-54
2021/04/29 01:51:01;;;;;;;0.30;0.20;;;;;;;11.51;100.00;98869.78;5028642;28;20893;-56
2021/04/29 01:53:28;;;;;;;0.30;0.20;;;;;;;11.42;100.00;98867.63;5028749;28;20457;-55
2021/04/29 01:55:55;;;;;;;0.50;0.50;;;;;;;11.53;100.00;98867.88;5035608;28;20458;-55
2021/04/29 01:58:22;;;;;;;0.63;0.63;;;;;;;11.48;100.00;98861.94;5021819;28;20448;-55
2021/04/29 02:00:49;;;;;;;0.30;0.20;;;;;;;11.48;100.00;98869.94;5017759;28;20537;-55
2021/04/29 02:03:16;;;;;;;0.30;0.20;;;;;;;11.36;100.00;98862.63;5035062;28;20451;-55
2021/04/29 02:05:42;;;;;;;0.30;0.20;;;;;;;11.52;100.00;98871.50;5034891;28;20451;-55
2021/04/29 02:08:08;;;;;;;0.30;0.20;;;;;;;11.49;100.00;98876.09;5035059;28;20459;-55
2021/04/29 02:10:35;;;;;;;0.30;0.20;;;;;;;11.56;100.00;98870.38;5035186;28;20491;-55
2021/04/29 02:13:02;;;;;;;0.30;0.20;;;;;;;11.62;100.00;98871.81;5021313;28;21121;-55
2021/04/29 02:15:35;;;;;;;0.80;0.80;;;;;;;11.58;100.00;98871.16;5035161;28;20447;-55
2021/04/29 02:18:14;;;;;;;0.30;0.20;;;;;;;11.55;100.00;98879.31;5034840;28;20456;-54
2021/04/29 02:20:42;;;;;;;0.70;0.67;;;;;;;11.63;100.00;98884.19;5034900;28;20459;-55
2021/04/29 02:23:11;;;;;;;0.30;0.20;;;;;;;11.43;100.00;98895.09;5017110;28;20452;-55
2021/04/29 02:25:39;;;;;;;0.57;0.57;;;;;;;11.46;100.00;98887.78;5034357;28;20444;-54
2021/04/29 02:28:05;;;;;;;0.40;0.30;;;;;;;11.43;100.00;98895.94;5034600;28;20502;-55
2021/04/29 02:30:32;;;;;;;0.40;0.30;;;;;;;11.33;100.00;98896.50;5034241;28;20507;-55
2021/04/29 02:33:05;;;;;;;0.70;0.70;;;;;;;11.31;100.00;98893.94;5035188;28;20451;-51
2021/04/29 02:35:31;;;;;;;0.30;0.20;;;;;;;11.21;100.00;98890.06;5034258;28;20462;-52
2021/04/29 02:37:58;;;;;;;0.40;0.40;;;;;;;11.05;100.00;98897.13;5034234;28;21003;-52
2021/04/29 02:40:27;;;;;;;0.30;0.20;;;;;;;10.98;100.00;98899.28;5034241;28;20867;-53
2021/04/29 02:43:04;;;;;;;0.30;0.20;;;;;;;11.10;100.00;98898.63;5024585;28;20460;-53
2021/04/29 02:45:30;;;;;;;0.30;0.20;;;;;;;10.80;100.00;98897.56;5028539;28;20451;-52
2021/04/29 02:47:57;;;;;;;0.30;0.20;;;;;;;10.65;100.00;98901.84;5034427;28;20448;-52
2021/04/29 02:50:25;;;;;;;0.40;0.30;;;;;;;10.77;100.00;98905.69;5032605;28;20537;-51
2021/04/29 02:52:52;;;;;;;0.30;0.20;;;;;;;10.76;100.00;98910.16;5022662;28;20875;-52
2021/04/29 02:55:23;;;;;;;2.93;1.67;;;;;;;10.65;100.00;98904.50;5034023;28;20451;-52
2021/04/29 02:57:49;;;;;;;0.30;0.20;;;;;;;10.50;100.00;98915.94;5025112;28;20445;-52
2021/04/29 03:00:18;;;;;;;0.30;0.20;;;;;;;10.52;100.00;98917.56;5030400;28;20521;-52
2021/04/29 03:02:44;;;;;;;0.30;0.20;;;;;;;10.52;100.00;98912.25;5034319;28;20455;-52
2021/04/29 03:05:13;;;;;;;7.00;3.00;;;;;;;10.56;100.00;98926.25;5034106;28;20959;-52
2021/04/29 03:07:40;;;;;;;0.30;0.30;;;;;;;10.55;100.00;98922.75;5033766;28;20490;-52
2021/04/29 03:10:09;;;;;;;48.70;1.80;;;;;;;10.45;100.00;98918.81;5033790;28;20456;-52
2021/04/29 03:12:36;;;;;;;0.30;0.20;;;;;;;10.56;100.00;98920.94;5023073;28;20901;-51
2021/04/29 03:15:03;;;;;;;0.40;0.40;;;;;;;10.51;100.00;98918.50;5031582;28;21030;-52
2021/04/29 03:17:30;;;;;;;0.30;0.20;;;;;;;10.49;100.00;98917.72;5033446;28;20451;-52
2021/04/29 03:19:56;;;;;;;0.50;0.50;;;;;;;10.60;100.00;98906.56;5033790;28;20486;-52
2021/04/29 03:22:22;;;;;;;0.43;0.43;;;;;;;10.30;100.00;98914.28;5033590;28;20937;-53
2021/04/29 03:24:49;;;;;;;2.40;2.20;;;;;;;10.52;100.00;98914.91;5033722;28;20451;-52
2021/04/29 03:27:21;;;;;;;0.77;0.60;;;;;;;10.74;100.00;98912.03;5033471;28;20519;-52
2021/04/29 03:29:47;;;;;;;0.30;0.20;;;;;;;10.49;100.00;98915.06;5033479;28;20448;-52
2021/04/29 03:32:13;;;;;;;0.40;0.30;;;;;;;10.49;100.00;98915.06;5032978;28;20494;-53
2021/04/29 03:34:40;;;;;;;0.30;0.20;;;;;;;10.59;100.00;98916.34;5033312;28;20454;-52
2021/04/29 03:37:06;;;;;;;0.30;0.20;;;;;;;10.59;100.00;98924.31;5033325;28;20474;-53
2021/04/29 03:39:32;;;;;;;0.30;0.20;;;;;;;10.56;100.00;98926.25;5033027;28;20932;-52
2021/04/29 03:41:58;;;;;;;0.30;0.20;;;;;;;10.54;100.00;98926.31;5033167;28;20533;-53
2021/04/29 03:44:25;;;;;;;0.30;0.20;;;;;;;10.55;100.00;98930.72;5020150;28;20459;-53
2021/04/29 03:46:51;;;;;;;0.30;0.20;;;;;;;10.49;100.00;98938.13;5015591;28;20458;-53
2021/04/29 03:49:18;;;;;;;0.30;0.30;;;;;;;10.45;100.00;98936.56;5032810;28;20483;-53
2021/04/29 03:51:44;;;;;;;0.30;0.20;;;;;;;10.44;100.00;98945.47;5021168;28;20550;-54
2021/04/29 03:54:11;;;;;;;0.30;0.20;;;;;;;10.26;100.00;98937.44;5019225;28;20452;-54
2021/04/29 03:56:37;;;;;;;0.40;0.30;;;;;;;10.33;100.00;98949.50;5033873;28;20458;-54
2021/04/29 03:59:03;;;;;;;0.30;0.20;;;;;;;10.25;100.00;98953.47;5021010;28;20447;-54
2021/04/29 04:01:29;;;;;;;3.00;1.20;;;;;;;10.27;100.00;98956.91;5033094;28;20468;-54
2021/04/29 04:03:56;;;;;;;0.30;0.30;;;;;;;10.51;100.00;98957.50;5033043;28;20448;-54
2021/04/29 04:06:22;;;;;;;0.30;0.20;;;;;;;10.48;100.00;98952.34;5032997;28;20451;-54
2021/04/29 04:08:49;;;;;;;0.30;0.20;;;;;;;10.53;100.00;98952.97;5032982;28;20502;-54
2021/04/29 04:11:15;;;;;;;0.40;0.30;;;;;;;10.46;100.00;98957.72;5032927;28;20498;-54
2021/04/29 04:13:41;;;;;;;0.30;0.20;;;;;;;10.38;100.00;98949.28;5019345;28;20474;-55
2021/04/29 04:16:11;;;;;;;0.43;0.43;;;;;;;10.58;100.00;98956.28;5032461;28;20940;-54
2021/04/29 04:18:38;;;;;;;0.30;0.20;;;;;;;10.75;100.00;98958.94;5032638;28;20452;-54
2021/04/29 04:21:05;;;;;;;0.30;0.20;;;;;;;10.39;100.00;98958.97;5032539;28;21036;-55
2021/04/29 04:23:31;;;;;;;0.30;0.20;;;;;;;10.38;100.00;98960.75;5032521;28;21010;-54
2021/04/29 04:25:57;;;;;;;0.30;0.20;;;;;;;10.30;100.00;98956.78;5032422;28;20451;-54
2021/04/29 04:28:23;;;;;;;0.30;0.30;;;;;;;10.55;100.00;98965.25;5032696;28;20452;-54
2021/04/29 04:30:50;;;;;;;0.40;0.30;;;;;;;10.56;100.00;98955.50;5032463;28;20913;-54
2021/04/29 04:33:16;;;;;;;0.30;0.20;;;;;;;10.65;100.00;98953.22;5014781;28;20460;-54
2021/04/29 04:35:42;;;;;;;0.30;0.20;;;;;;;10.67;100.00;98954.00;5032271;28;20960;-54
2021/04/29 04:38:08;;;;;;;0.30;0.20;;;;;;;10.73;100.00;98963.47;5032417;28;20444;-54
2021/04/29 04:40:34;;;;;;;0.30;0.20;;;;;;;10.80;100.00;98959.53;5032376;28;20475;-54
2021/04/29 04:43:00;;;;;;;0.30;0.20;;;;;;;10.79;100.00;98965.81;5026040;28;20456;-54
2021/04/29 04:45:26;;;;;;;0.30;0.20;;;;;;;10.63;100.00;98964.84;5024927;28;20451;-54
2021/04/29 04:47:53;;;;;;;0.30;0.20;;;;;;;10.60;100.00;98965.03;5032149;28;20452;-54
2021/04/29 04:50:19;;;;;;;0.40;0.30;;;;;;;10.39;100.00;98962.47;5031285;28;20547;-54
2021/04/29 04:52:45;;;;;;;0.40;0.33;;;;;;;10.67;100.00;98964.63;5020036;28;21005;-54
2021/04/29 04:55:12;;;;;;;0.30;0.20;;;;;;;10.80;100.00;98966.66;5014580;28;20862;-54
2021/04/29 04:57:38;;;;;;;1.90;1.80;;;;;;;10.73;100.00;98974.09;5024397;28;20456;-54
2021/04/29 05:00:05;;;;;;;0.50;0.50;;;;;;;10.97;100.00;98974.66;5026933;28;20478;-54
2021/04/29 05:02:31;;;;;;;8.80;2.23;;;;;;;11.04;100.00;98973.38;5032255;28;20448;-54
2021/04/29 05:05:00;;;;;;;0.57;0.50;;;;;;;11.07;100.00;98980.34;5014413;28;20456;-51
2021/04/29 05:07:27;;;;;;;0.63;0.63;;;;;;;11.45;100.00;98991.63;5031891;28;20451;-52
2021/04/29 05:09:53;;;;;;;1.23;1.23;;;;;;;11.22;100.00;98993.69;5032075;28;20448;-53
2021/04/29 05:12:19;;;;;;;0.30;0.20;;;;;;;11.03;100.00;98994.75;5023651;28;20872;-53
2021/04/29 05:14:45;;;;;;;0.30;0.20;;;;;;;11.34;100.00;98994.84;5026949;28;20451;-54
2021/04/29 05:17:11;;;;;;;0.57;0.57;;;;;;;11.34;100.00;98992.19;5031964;28;20471;-54
2021/04/29 05:19:37;;;;;;;0.70;0.70;;;;;;;11.33;100.00;98989.63;5014440;28;20452;-54
2021/04/29 05:22:04;;;;;;;0.70;0.50;;;;;;;11.35;100.00;98996.56;5031874;28;20526;-54
2021/04/29 05:24:30;;;;;;;0.30;0.20;;;;;;;11.66;100.00;98985.19;5032100;28;20451;-53
2021/04/29 05:26:56;;;;;;;0.80;0.80;;;;;;;11.59;100.00;98989.09;5031752;28;20521;-54
2021/04/29 05:29:22;;;;;;;0.77;0.77;;;;;;;11.46;100.00;98988.91;5031677;28;20452;-54
2021/04/29 05:31:48;;;;;;;0.40;0.20;;;;;;;11.48;100.00;98984.34;5031540;28;20504;-54
2021/04/29 05:34:15;;;;;;;3.60;0.87;;;;;;;11.52;100.00;98987.72;5031651;28;20455;-53
2021/04/29 05:36:41;;;;;;;0.30;0.20;;;;;;;11.56;100.00;98986.63;5031891;28;20459;-54
2021/04/29 05:39:08;;;;;;;0.30;0.20;;;;;;;11.70;100.00;98981.41;5031904;28;20463;-53
2021/04/29 05:41:34;;;;;;;0.30;0.20;;;;;;;11.66;100.00;98987.00;5031426;28;20467;-53
2021/04/29 05:44:01;;;;;;;0.30;0.20;;;;;;;11.75;100.00;98983.81;5018391;28;20448;-53
2021/04/29 05:46:27;;;;;;;0.53;0.50;;;;;;;11.95;100.00;98985.44;5014012;28;20452;-54
2021/04/29 05:48:53;;;;;;;0.30;0.20;;;;;;;11.73;100.00;98999.00;5031751;28;20455;-53
2021/04/29 05:51:20;;;;;;;0.30;0.20;;;;;;;12.00;100.00;99004.66;5022659;28;20489;-54
2021/04/29 05:53:46;;;;;;;0.30;0.20;;;;;;;11.92;100.00;99013.06;5027678;28;20510;-54
2021/04/29 05:56:15;;;;;;;0.30;0.20;;;;;;;12.14;100.00;99010.94;5034121;28;20448;-53
2021/04/29 05:58:42;;;;;;;0.40;0.20;;;;;;;12.05;100.00;99015.91;5021898;28;20517;-53
2021/04/29 06:01:09;;;;;;;0.33;0.20;;;;;;;12.19;100.00;99020.47;5035411;28;20460;-54
2021/04/29 06:03:35;;;;;;;0.30;0.20;;;;;;;12.43;100.00;99019.09;5034899;28;20459;-54
2021/04/29 06:06:01;;;;;;;0.30;0.20;;;;;;;12.38;100.00;99018.53;5035141;28;20543;-54
2021/04/29 06:08:27;;;;;;;0.57;0.57;;;;;;;12.90;100.00;99024.38;5034912;28;20456;-54
2021/04/29 06:10:54;;;;;;;0.30;0.20;;;;;;;13.30;100.00;99022.94;5034818;28;20478;-54
2021/04/29 06:13:20;;;;;;;0.30;0.20;;;;;;;13.63;100.00;99029.81;5025856;28;20468;-54
2021/04/29 06:15:46;;;;;;;0.30;0.20;;;;;;;13.74;100.00;99031.84;5023563;28;20460;-54
2021/04/29 06:18:17;;;;;;;0.30;0.20;;;;;;;13.60;100.00;99022.88;5032248;28;20470;-54
2021/04/29 06:20:44;;;;;;;0.30;0.20;;;;;;;13.89;100.00;99017.53;5034868;28;20467;-54
2021/04/29 06:23:10;;;;;;;0.30;0.20;;;;;;;14.28;100.00;99027.50;5016990;28;20448;-54
2021/04/29 06:25:36;;;;;;;0.30;0.20;;;;;;;14.03;100.00;99019.34;5034922;28;20476;-54
2021/04/29 06:28:02;;;;;;;0.30;0.20;;;;;;;14.06;100.00;99027.16;5034539;28;20451;-54
2021/04/29 06:30:29;;;;;;;1.63;0.47;;;;;;;14.13;100.00;99020.47;5034448;28;20483;-54
2021/04/29 06:32:55;;;;;;;0.30;0.20;;;;;;;14.33;99.80;99019.19;5034120;28;20479;-54
2021/04/29 06:35:21;;;;;;;0.30;0.20;;;;;;;14.34;98.75;99034.28;5017027;28;21030;-54
2021/04/29 06:37:47;;;;;;;0.43;0.40;;;;;;;14.09;98.95;99027.81;5034313;28;20814;-54
2021/04/29 06:40:14;;;;;;;0.30;0.20;;;;;;;13.98;100.00;99026.75;5034312;28;21007;-54
2021/04/29 06:42:41;;;;;;;1.03;0.83;;;;;;;14.05;100.00;99030.78;5031592;28;20441;-54
2021/04/29 06:45:08;;;;;;;0.30;0.20;;;;;;;13.75;100.00;99036.22;5024008;28;20452;-53
2021/04/29 06:47:34;;;;;;;0.30;0.20;;;;;;;13.59;99.61;99030.97;5033097;28;20900;-54
2021/04/29 06:50:01;;;;;;;0.30;0.20;;;;;;;13.76;100.00;99036.13;5016382;28;20488;-54
2021/04/29 06:52:27;;;;;;;0.30;0.20;;;;;;;13.83;99.72;99032.09;5021038;28;20492;-55
2021/04/29 06:54:53;;;;;;;0.40;0.40;;;;;;;13.68;99.53;99041.06;5034171;28;20871;-54
2021/04/29 06:57:20;;;;;;;0.30;0.20;;;;;;;13.64;100.00;99039.56;5029064;28;20459;-54
2021/04/29 06:59:46;;;;;;;6.43;1.07;;;;;;;13.58;100.00;99038.13;5026297;28;20502;-55
2021/04/29 07:02:12;;;;;;;0.30;0.20;;;;;;;13.60;100.00;99048.72;5033957;28;20551;-54
2021/04/29 07:04:58;;;;;;;0.30;0.20;;;;;;;13.89;99.79;99046.91;5033836;28;20542;-54
2021/04/29 07:07:24;;;;;;;2.10;0.97;;;;;;;13.69;100.00;99041.94;5033103;28;20451;-54
2021/04/29 07:09:51;;;;;;;0.30;0.20;;;;;;;13.83;100.00;99050.81;5033974;28;20455;-54
2021/04/29 07:12:17;;;;;;;1.33;1.23;;;;;;;13.78;99.18;99052.06;5025184;28;20500;-54
2021/04/29 07:14:44;;;;;;;0.30;0.20;;;;;;;14.03;97.50;99046.06;5029446;28;20491;-54
2021/04/29 07:17:10;;;;;;;0.30;0.30;;;;;;;13.77;97.39;99047.66;5033842;28;20481;-54
2021/04/29 07:19:37;;;;;;;0.30;0.20;;;;;;;13.78;97.18;99055.59;5033645;28;20459;-54
2021/04/29 07:22:04;;;;;;;1.60;1.60;;;;;;;13.98;96.91;99048.13;5033817;28;20467;-54
2021/04/29 07:24:31;;;;;;;0.30;0.20;;;;;;;14.12;96.60;99057.03;5033731;28;20475;-54
2021/04/29 07:26:57;;;;;;;0.30;0.20;;;;;;;14.05;96.32;99057.50;5033418;28;20569;-54
2021/04/29 07:29:24;;;;;;;0.30;0.20;;;;;;;13.85;95.46;99056.94;5033614;28;20447;-54
2021/04/29 07:31:50;;;;;;;0.40;0.30;;;;;;;13.94;97.25;99052.81;5033285;28;20517;-55
2021/04/29 07:34:17;;;;;;;0.40;0.40;;;;;;;13.83;97.03;99057.97;5033434;28;20451;-54
2021/04/29 07:36:43;;;;;;;0.40;0.20;;;;;;;14.11;95.98;99051.75;5033525;28;20547;-54
2021/04/29 07:39:10;;;;;;;0.30;0.20;;;;;;;13.90;96.92;99064.66;5033489;28;20455;-54
2021/04/29 07:41:36;;;;;;;0.30;0.20;;;;;;;13.96;94.76;99050.06;5033220;28;20468;-54
2021/04/29 07:44:03;;;;;;;0.30;0.20;;;;;;;13.95;96.61;99051.88;5030731;28;20484;-54
2021/04/29 07:46:31;;;;;;;0.30;0.30;;;;;;;13.78;96.86;99050.25;5022759;28;20952;-54
2021/04/29 07:48:57;;;;;;;0.30;0.20;;;;;;;14.04;94.71;99047.78;5032545;28;20967;-54
2021/04/29 07:51:23;;;;;;;0.30;0.20;;;;;;;13.85;95.54;99048.06;5023556;28;20555;-54
2021/04/29 07:53:50;;;;;;;0.30;0.20;;;;;;;13.98;96.78;99053.47;5029647;28;20456;-54
2021/04/29 07:56:16;;;;;;;0.30;0.20;;;;;;;14.33;94.57;99062.81;5032886;28;20452;-54
2021/04/29 07:58:42;;;;;;;1.53;1.07;;;;;;;14.18;92.61;99061.13;5019433;28;20460;-54
2021/04/29 08:01:08;;;;;;;0.40;0.40;;;;;;;14.45;92.13;99062.06;5032818;28;20482;-54
2021/04/29 08:03:35;;;;;;;2.40;1.13;;;;;;;14.66;91.56;99065.16;5032912;28;20514;-54
2021/04/29 08:06:01;;;;;;;0.40;0.40;;;;;;;14.81;90.52;99072.22;5033116;28;20549;-54
2021/04/29 08:08:27;;;;;;;0.30;0.20;;;;;;;14.98;90.04;99073.78;5032998;28;20462;-54
2021/04/29 08:10:53;;;;;;;0.30;0.20;;;;;;;14.56;90.43;99073.91;5032973;28;20476;-54
2021/04/29 08:13:19;;;;;;;0.30;0.20;;;;;;;14.66;88.50;99075.84;5019480;28;20452;-54
2021/04/29 08:15:45;;;;;;;0.30;0.20;;;;;;;14.97;90.92;99089.94;5032686;28;20456;-54
2021/04/29 08:18:11;;;;;;;0.30;0.20;;;;;;;15.41;88.89;99076.25;5032569;28;20460;-54
2021/04/29 08:20:39;;;;;;;0.30;0.20;;;;;;;15.51;85.98;99068.44;5032656;28;20471;-54
2021/04/29 08:23:05;;;;;;;0.40;0.30;;;;;;;15.17;86.41;99081.44;5032777;28;20510;-54
2021/04/29 08:25:32;;;;;;;0.37;0.30;;;;;;;14.72;89.67;99074.63;5032818;28;20869;-54
2021/04/29 08:27:59;;;;;;;1.87;0.97;;;;;;;14.76;87.57;99082.34;5032577;28;20456;-54
2021/04/29 08:30:28;;;;;;;0.33;0.20;;;;;;;14.75;86.90;99082.44;5032621;28;20482;-55
2021/04/29 08:32:55;;;;;;;1.60;0.67;;;;;;;15.05;86.08;99069.72;5032822;28;20522;-58
2021/04/29 08:35:22;;;;;;;0.30;0.20;;;;;;;15.29;86.13;99071.72;5015367;28;20448;-58
2021/04/29 08:37:48;;;;;;;0.60;0.60;;;;;;;14.84;86.97;99073.81;5032626;28;20448;-58
2021/04/29 08:40:14;;;;;;;0.30;0.20;;;;;;;15.18;86.49;99072.44;5032959;28;20456;-58
2021/04/29 08:42:43;;;;;;;0.30;0.20;;;;;;;15.50;84.29;99072.09;5028302;28;20590;-58
2021/04/29 08:45:10;;;;;;;0.40;0.40;;;;;;;15.83;82.73;99075.16;5005803;28;20807;-58
2021/04/29 08:47:37;;;;;;;0.30;0.20;;;;;;;16.05;81.57;99069.16;5032392;28;20451;-58
2021/04/29 08:50:21;;;;;;;0.40;0.20;;;;;;;16.13;82.14;99079.31;5027154;28;20472;-58
2021/04/29 08:52:48;;;;;;;0.53;0.47;;;;;;;16.32;79.45;99082.41;5021213;28;20495;-58
2021/04/29 08:55:21;;;;;;;0.40;0.20;;;;;;;16.48;79.78;99088.41;5009239;28;20480;-58
2021/04/29 08:57:48;;;;;;;0.40;0.20;;;;;;;15.82;79.68;99081.47;5023804;28;20675;-59
2021/04/29 09:00:16;;;;;;;0.40;0.20;;;;;;;15.60;81.03;99086.59;5028090;28;20455;-58
2021/04/29 09:02:43;;;;;;;0.40;0.20;;;;;;;15.84;79.15;99092.09;5032299;28;20476;-58
2021/04/29 09:05:13;;;;;;;0.40;0.20;;;;;;;16.42;79.74;99096.88;5032161;28;20542;-58
2021/04/29 09:07:52;;;;;;;0.40;0.20;;;;;;;16.79;76.86;99081.69;5032060;28;20452;-58
2021/04/29 09:10:28;;;;;;;0.40;0.20;;;;;;;16.84;77.54;99084.00;5031979;28;20470;-58
2021/04/29 09:12:55;;;;;;;0.40;0.20;;;;;;;17.18;76.34;99091.28;5019088;28;20492;-58
2021/04/29 09:15:23;;;;;;;0.40;0.20;;;;;;;17.27;73.26;99075.44;5012452;28;20992;-58
2021/04/29 09:18:09;;;;;;;0.40;0.20;;;;;;;17.19;72.17;99078.72;5025622;28;20459;-57
2021/04/29 09:20:38;;;;;;;0.40;0.20;;;;;;;17.32;72.06;99079.50;5012347;28;20841;-59
2021/04/29 09:23:08;;;;;;;0.40;0.20;;;;;;;17.66;69.66;99072.38;5028684;28;20440;-58
2021/04/29 09:25:35;;;;;;;0.40;0.20;;;;;;;17.62;69.86;99081.66;5031970;28;20935;-58
2021/04/29 09:28:03;;;;;;;0.40;0.20;;;;;;;17.59;68.87;99071.16;5032086;28;20518;-58
2021/04/29 09:30:30;;;;;;;0.40;0.20;;;;;;;16.95;69.49;99076.03;5033048;28;20471;-58
2021/04/29 09:33:01;;;;;;;0.40;0.30;;;;;;;17.67;68.04;99076.78;5035926;28;20491;-58
2021/04/29 09:35:27;;;;;;;0.40;0.20;;;;;;;17.73;68.17;99078.19;5035928;28;20447;-58
2021/04/29 09:37:59;;;;;;;0.40;0.20;;;;;;;17.94;67.93;99083.72;5035636;28;20455;-59
2021/04/29 09:40:30;;;;;;;0.40;0.20;;;;;;;17.98;67.74;99082.53;5035407;28;20463;-59
2021/04/29 09:43:00;;;;;;;0.40;0.20;;;;;;;17.88;67.87;99085.06;5029235;28;20445;-58
2021/04/29 09:45:31;;;;;;;0.40;0.20;;;;;;;17.36;68.91;99083.66;5028813;28;20801;-58
2021/04/29 09:48:08;;;;;;;0.90;0.90;;;;;;;17.88;66.63;99093.13;5035695;28;20448;-58
2021/04/29 09:50:40;;;;;;;0.40;0.20;;;;;;;18.20;64.14;99082.53;5032560;28;20531;-59
2021/04/29 09:53:09;;;;;;;0.40;0.20;;;;;;;18.31;65.54;99100.50;5026065;28;20493;-58
2021/04/29 09:55:38;;;;;;;0.40;0.20;;;;;;;18.07;66.09;99092.53;5035208;28;20861;-58
2021/04/29 09:58:26;;;;;;;0.60;0.60;;;;;;;18.87;66.50;99082.50;5024169;28;20452;-58
2021/04/29 10:00:52;;;;;;;0.40;0.20;;;;;;;19.01;63.91;99102.06;5022736;28;20476;-58
2021/04/29 10:03:20;;;;;;;0.70;0.70;;;;;;;18.93;62.85;99102.69;5035133;28;20448;-58
2021/04/29 10:05:51;;;;;;;0.40;0.20;;;;;;;18.52;62.84;99119.47;5035347;28;20451;-59
2021/04/29 10:08:22;;;;;;;0.50;0.40;;;;;;;16.96;63.35;99158.28;5035084;28;20450;-58
2021/04/29 10:10:49;;;;;;;0.40;0.20;;;;;;;15.78;66.52;99154.16;5035058;28;20968;-58
2021/04/29 10:13:18;;;;;;;0.50;0.40;;;;;;;14.99;68.62;99144.22;5021996;28;20499;-58
2021/04/29 10:15:45;;;;;;;0.40;0.20;;;;;;;15.20;69.58;99136.56;5035061;28;20866;-58
2021/04/29 10:18:12;;;;;;;0.40;0.20;;;;;;;15.42;68.27;99139.56;5032691;28;20464;-58
2021/04/29 10:20:46;;;;;;;0.40;0.20;;;;;;;14.88;72.24;99130.66;5025502;28;20468;-58
2021/04/29 10:23:17;;;;;;;0.40;0.20;;;;;;;14.97;73.42;99138.09;5021334;28;20439;-58
2021/04/29 10:25:58;;;;;;;0.40;0.20;;;;;;;14.72;70.75;99133.47;5034869;28;20452;-57
2021/04/29 10:28:45;;;;;;;0.40;0.20;;;;;;;14.72;72.18;99133.47;5014975;28;20472;-58
2021/04/29 10:31:26;;;;;;;0.40;0.20;;;;;;;15.44;72.14;99132.28;5013305;28;20479;-58
2021/04/29 10:34:11;;;;;;;5.13;1.33;;;;;;;15.64;70.14;99122.94;5034824;28;20444;-58
2021/04/29 10:36:44;;;;;;;0.40;0.20;;;;;;;15.62;70.31;99125.72;5014938;28;20535;-58
2021/04/29 10:39:14;;;;;;;0.30;0.20;;;;;;;15.74;67.88;99134.72;5029800;28;20447;-58
2021/04/29 10:41:45;;;;;;;0.40;0.30;;;;;;;16.00;66.01;99135.63;5034358;28;20472;-58
2021/04/29 10:44:14;;;;;;;0.30;0.20;;;;;;;16.30;64.94;99130.78;5020838;28;20996;-58
2021/04/29 10:46:42;;;;;;;0.40;0.30;;;;;;;16.98;62.60;99126.81;5034750;28;20529;-58
2021/04/29 10:49:10;;;;;;;0.40;0.20;;;;;;;17.21;62.10;99125.09;5034051;28;20462;-58
2021/04/29 10:51:38;;;;;;;0.40;0.20;;;;;;;17.51;61.25;99134.53;5022907;28;20488;-58
2021/04/29 10:54:21;;;;;;;0.40;0.20;;;;;;;17.41;59.33;99143.28;5032554;28;20456;-58
2021/04/29 10:57:06;;;;;;;1.70;0.80;;;;;;;17.80;60.63;99127.81;5033408;28;20451;-58
2021/04/29 10:59:44;;;;;;;0.40;0.20;;;;;;;18.20;58.48;99130.09;5024481;28;20455;-58
2021/04/29 11:02:34;;;;;;;0.40;0.20;;;;;;;17.72;60.79;99122.19;5033856;28;20468;-58
2021/04/29 11:05:01;;;;;;;0.40;0.30;;;;;;;18.14;59.05;99122.50;5034230;28;20444;-59
2021/04/29 11:07:29;;;;;;;0.40;0.20;;;;;;;18.01;58.70;99107.34;5033912;28;20451;-59
2021/04/29 11:10:04;;;;;;;0.40;0.20;;;;;;;17.76;58.91;99116.44;5033851;28;20452;-59
2021/04/29 11:12:43;;;;;;;0.40;0.30;;;;;;;17.29;60.44;99120.03;5024020;28;20476;-58
2021/04/29 11:15:29;;;;;;;0.60;0.60;;;;;;;16.96;64.80;99120.69;5032391;28;20478;-58
2021/04/29 11:18:09;;;;;;;1.50;0.80;;;;;;;17.17;64.43;99129.84;5015952;28;20443;-58
2021/04/29 11:20:54;;;;;;;0.43;0.37;;;;;;;17.10;63.36;99125.03;5033883;28;20884;-58
2021/04/29 11:23:36;;;;;;;0.50;0.40;;;;;;;17.47;64.36;99118.63;5033545;28;20939;-59
2021/04/29 11:26:04;;;;;;;5.50;1.17;;;;;;;17.46;64.01;99118.75;5033383;28;20937;-59
2021/04/29 11:28:31;;;;;;;0.40;0.20;;;;;;;17.43;66.04;99119.84;5033888;28;20444;-58
2021/04/29 11:30:57;;;;;;;0.40;0.30;;;;;;;17.57;64.80;99109.88;5033482;28;20488;-58
2021/04/29 11:33:34;;;;;;;0.40;0.20;;;;;;;18.15;64.04;99118.84;5033240;28;20500;-57
2021/04/29 11:36:13;;;;;;;2.93;0.77;;;;;;;18.30;58.78;99105.03;5016103;28;20455;-59